sensor_id;sensor_type;location;lat;lon;timestamp;P1;durP1;ratioP1;P2;durP2;ratioP2
62463;SDS011;48512;48.552;9.380;2023-03-08T00:01:16;18.67;;;8.07;;
62463;SDS011;48512;48.552;9.380;2023-03-08T00:03:43;17.42;;;7.20;;
62463;SDS011;48512;48.552;9.380;2023-03-08T00:06:12;15.10;;;6.93;;
62463;SDS011;48512;48.552;9.380;2023-03-08T00:08:39;15.20;;;7.32;;
62463;SDS011;48512;48.552;9.380;2023-03-08T00:11:06;19.05;;;7.63;;
62463;SDS011;48512;48.552;9.380;2023-03-08T00:13:32;17.33;;;7.32;;
62463;SDS011;48512;48.552;9.380;2023-03-08T00:15:59;18.50;;;7.38;;
62463;SDS011;48512;48.552;9.380;2023-03-08T00:18:25;17.67;;;7.75;;
62463;SDS011;48512;48.552;9.380;2023-03-08T00:20:57;13.85;;;6.95;;
62463;SDS011;48512;48.552;9.380;2023-03-08T00:23:30;15.38;;;7.20;;
62463;SDS011;48512;48.552;9.380;2023-03-08T00:25:55;19.95;;;6.85;;
62463;SDS011;48512;48.552;9.380;2023-03-08T00:28:21;16.10;;;8.23;;
62463;SDS011;48512;48.552;9.380;2023-03-08T00:30:56;16.95;;;7.55;;
62463;SDS011;48512;48.552;9.380;2023-03-08T00:35:56;14.55;;;6.93;;
62463;SDS011;48512;48.552;9.380;2023-03-08T00:38:23;14.60;;;6.57;;
62463;SDS011;48512;48.552;9.380;2023-03-08T00:40:48;14.57;;;7.63;;
62463;SDS011;48512;48.552;9.380;2023-03-08T00:43:13;14.32;;;7.18;;
62463;SDS011;48512;48.552;9.380;2023-03-08T00:45:39;15.00;;;6.90;;
62463;SDS011;48512;48.552;9.380;2023-03-08T00:48:04;14.77;;;7.47;;
62463;SDS011;48512;48.552;9.380;2023-03-08T00:50:30;19.42;;;7.97;;
62463;SDS011;48512;48.552;9.380;2023-03-08T00:52:55;18.05;;;7.10;;
62463;SDS011;48512;48.552;9.380;2023-03-08T00:55:20;17.38;;;7.47;;
62463;SDS011;48512;48.552;9.380;2023-03-08T00:57:46;18.52;;;8.02;;
62463;SDS011;48512;48.552;9.380;2023-03-08T01:00:11;16.90;;;7.85;;
62463;SDS011;48512;48.552;9.380;2023-03-08T01:02:37;16.83;;;7.45;;
62463;SDS011;48512;48.552;9.380;2023-03-08T01:05:06;16.08;;;7.90;;
62463;SDS011;48512;48.552;9.380;2023-03-08T01:07:32;20.10;;;8.02;;
62463;SDS011;48512;48.552;9.380;2023-03-08T01:09:57;17.40;;;7.82;;
62463;SDS011;48512;48.552;9.380;2023-03-08T01:12:23;18.23;;;7.82;;
62463;SDS011;48512;48.552;9.380;2023-03-08T01:14:50;17.50;;;7.82;;
62463;SDS011;48512;48.552;9.380;2023-03-08T01:17:16;17.52;;;7.70;;
62463;SDS011;48512;48.552;9.380;2023-03-08T01:19:41;18.27;;;7.35;;
62463;SDS011;48512;48.552;9.380;2023-03-08T01:22:06;15.15;;;7.47;;
62463;SDS011;48512;48.552;9.380;2023-03-08T01:24:32;13.68;;;7.05;;
62463;SDS011;48512;48.552;9.380;2023-03-08T01:26:57;14.48;;;7.07;;
62463;SDS011;48512;48.552;9.380;2023-03-08T01:29:25;18.83;;;7.30;;
62463;SDS011;48512;48.552;9.380;2023-03-08T01:31:51;16.00;;;7.68;;
62463;SDS011;48512;48.552;9.380;2023-03-08T01:34:17;16.08;;;8.20;;
62463;SDS011;48512;48.552;9.380;2023-03-08T01:36:42;14.43;;;6.88;;
62463;SDS011;48512;48.552;9.380;2023-03-08T01:39:08;15.60;;;6.60;;
62463;SDS011;48512;48.552;9.380;2023-03-08T01:41:33;18.80;;;8.48;;
62463;SDS011;48512;48.552;9.380;2023-03-08T01:43:58;17.33;;;7.00;;
62463;SDS011;48512;48.552;9.380;2023-03-08T01:46:27;17.58;;;8.02;;
62463;SDS011;48512;48.552;9.380;2023-03-08T01:49:16;16.30;;;7.70;;
62463;SDS011;48512;48.552;9.380;2023-03-08T01:51:42;14.05;;;6.90;;
62463;SDS011;48512;48.552;9.380;2023-03-08T01:54:48;13.95;;;6.60;;
62463;SDS011;48512;48.552;9.380;2023-03-08T01:57:27;13.07;;;6.20;;
62463;SDS011;48512;48.552;9.380;2023-03-08T01:59:57;14.50;;;6.28;;
62463;SDS011;48512;48.552;9.380;2023-03-08T02:02:31;14.68;;;6.63;;
62463;SDS011;48512;48.552;9.380;2023-03-08T02:05:02;16.08;;;6.88;;
62463;SDS011;48512;48.552;9.380;2023-03-08T02:07:28;15.73;;;6.65;;
62463;SDS011;48512;48.552;9.380;2023-03-08T02:09:53;15.40;;;6.15;;
62463;SDS011;48512;48.552;9.380;2023-03-08T02:12:19;14.40;;;6.78;;
62463;SDS011;48512;48.552;9.380;2023-03-08T02:14:45;11.23;;;5.78;;
62463;SDS011;48512;48.552;9.380;2023-03-08T02:17:11;12.02;;;6.00;;
62463;SDS011;48512;48.552;9.380;2023-03-08T02:22:09;12.70;;;6.60;;
62463;SDS011;48512;48.552;9.380;2023-03-08T02:24:36;11.85;;;5.68;;
62463;SDS011;48512;48.552;9.380;2023-03-08T02:27:03;10.95;;;5.93;;
62463;SDS011;48512;48.552;9.380;2023-03-08T02:29:32;15.02;;;6.13;;
62463;SDS011;48512;48.552;9.380;2023-03-08T02:31:57;12.57;;;5.95;;
62463;SDS011;48512;48.552;9.380;2023-03-08T02:34:22;14.02;;;5.97;;
62463;SDS011;48512;48.552;9.380;2023-03-08T02:36:48;14.48;;;6.88;;
62463;SDS011;48512;48.552;9.380;2023-03-08T02:39:13;13.27;;;6.65;;
62463;SDS011;48512;48.552;9.380;2023-03-08T02:41:38;17.98;;;6.55;;
62463;SDS011;48512;48.552;9.380;2023-03-08T02:44:04;15.40;;;6.20;;
62463;SDS011;48512;48.552;9.380;2023-03-08T02:46:29;12.13;;;6.00;;
62463;SDS011;48512;48.552;9.380;2023-03-08T02:48:55;12.02;;;5.75;;
62463;SDS011;48512;48.552;9.380;2023-03-08T02:51:20;15.57;;;6.80;;
62463;SDS011;48512;48.552;9.380;2023-03-08T02:53:45;12.77;;;6.22;;
62463;SDS011;48512;48.552;9.380;2023-03-08T02:56:11;14.20;;;5.50;;
62463;SDS011;48512;48.552;9.380;2023-03-08T02:58:36;15.38;;;6.47;;
62463;SDS011;48512;48.552;9.380;2023-03-08T03:01:01;15.27;;;6.55;;
62463;SDS011;48512;48.552;9.380;2023-03-08T03:03:27;16.08;;;6.70;;
62463;SDS011;48512;48.552;9.380;2023-03-08T03:05:52;14.48;;;6.30;;
62463;SDS011;48512;48.552;9.380;2023-03-08T03:08:18;10.75;;;5.63;;
62463;SDS011;48512;48.552;9.380;2023-03-08T03:10:43;16.65;;;6.15;;
62463;SDS011;48512;48.552;9.380;2023-03-08T03:13:08;18.40;;;7.20;;
62463;SDS011;48512;48.552;9.380;2023-03-08T03:15:36;16.42;;;7.18;;
62463;SDS011;48512;48.552;9.380;2023-03-08T03:18:03;15.13;;;7.07;;
62463;SDS011;48512;48.552;9.380;2023-03-08T03:20:30;14.25;;;6.45;;
62463;SDS011;48512;48.552;9.380;2023-03-08T03:22:57;15.90;;;7.72;;
62463;SDS011;48512;48.552;9.380;2023-03-08T03:25:22;18.08;;;7.57;;
62463;SDS011;48512;48.552;9.380;2023-03-08T03:27:48;16.42;;;6.45;;
62463;SDS011;48512;48.552;9.380;2023-03-08T03:30:13;15.60;;;7.50;;
62463;SDS011;48512;48.552;9.380;2023-03-08T03:32:39;14.73;;;6.60;;
62463;SDS011;48512;48.552;9.380;2023-03-08T03:35:04;15.45;;;6.97;;
62463;SDS011;48512;48.552;9.380;2023-03-08T03:37:30;17.08;;;6.95;;
62463;SDS011;48512;48.552;9.380;2023-03-08T03:39:58;13.80;;;6.80;;
62463;SDS011;48512;48.552;9.380;2023-03-08T03:42:23;16.27;;;7.20;;
62463;SDS011;48512;48.552;9.380;2023-03-08T03:44:49;12.20;;;6.55;;
62463;SDS011;48512;48.552;9.380;2023-03-08T03:47:14;16.23;;;6.70;;
62463;SDS011;48512;48.552;9.380;2023-03-08T03:49:40;14.35;;;6.10;;
62463;SDS011;48512;48.552;9.380;2023-03-08T03:52:05;13.07;;;6.38;;
62463;SDS011;48512;48.552;9.380;2023-03-08T03:54:31;17.77;;;7.45;;
62463;SDS011;48512;48.552;9.380;2023-03-08T03:56:56;14.70;;;6.88;;
62463;SDS011;48512;48.552;9.380;2023-03-08T03:59:22;13.57;;;6.68;;
62463;SDS011;48512;48.552;9.380;2023-03-08T04:01:49;15.27;;;7.38;;
62463;SDS011;48512;48.552;9.380;2023-03-08T04:04:14;14.55;;;6.72;;
62463;SDS011;48512;48.552;9.380;2023-03-08T04:06:40;17.30;;;7.20;;
62463;SDS011;48512;48.552;9.380;2023-03-08T04:09:07;15.55;;;6.80;;
62463;SDS011;48512;48.552;9.380;2023-03-08T04:11:37;15.52;;;6.88;;
62463;SDS011;48512;48.552;9.380;2023-03-08T04:14:03;16.63;;;7.72;;
62463;SDS011;48512;48.552;9.380;2023-03-08T04:16:30;14.73;;;7.35;;
62463;SDS011;48512;48.552;9.380;2023-03-08T04:18:58;14.45;;;6.65;;
62463;SDS011;48512;48.552;9.380;2023-03-08T04:21:25;14.10;;;7.15;;
62463;SDS011;48512;48.552;9.380;2023-03-08T04:23:51;14.85;;;7.68;;
62463;SDS011;48512;48.552;9.380;2023-03-08T04:26:17;14.77;;;7.00;;
62463;SDS011;48512;48.552;9.380;2023-03-08T04:28:42;18.02;;;7.72;;
62463;SDS011;48512;48.552;9.380;2023-03-08T04:31:22;18.63;;;8.18;;
62463;SDS011;48512;48.552;9.380;2023-03-08T04:33:49;14.02;;;6.75;;
62463;SDS011;48512;48.552;9.380;2023-03-08T04:36:16;19.48;;;8.55;;
62463;SDS011;48512;48.552;9.380;2023-03-08T04:38:42;16.30;;;7.47;;
62463;SDS011;48512;48.552;9.380;2023-03-08T04:41:09;18.58;;;8.55;;
62463;SDS011;48512;48.552;9.380;2023-03-08T04:43:45;17.88;;;7.97;;
62463;SDS011;48512;48.552;9.380;2023-03-08T04:46:11;18.70;;;8.85;;
62463;SDS011;48512;48.552;9.380;2023-03-08T04:48:36;18.90;;;8.15;;
62463;SDS011;48512;48.552;9.380;2023-03-08T04:51:03;18.42;;;8.23;;
62463;SDS011;48512;48.552;9.380;2023-03-08T04:53:30;24.38;;;9.40;;
62463;SDS011;48512;48.552;9.380;2023-03-08T04:55:56;19.10;;;9.15;;
62463;SDS011;48512;48.552;9.380;2023-03-08T04:58:24;23.02;;;10.23;;
62463;SDS011;48512;48.552;9.380;2023-03-08T05:00:49;22.42;;;9.40;;
62463;SDS011;48512;48.552;9.380;2023-03-08T05:03:14;22.67;;;10.02;;
62463;SDS011;48512;48.552;9.380;2023-03-08T05:05:44;20.10;;;10.23;;
62463;SDS011;48512;48.552;9.380;2023-03-08T05:08:19;19.23;;;9.15;;
62463;SDS011;48512;48.552;9.380;2023-03-08T05:10:47;24.75;;;10.27;;
62463;SDS011;48512;48.552;9.380;2023-03-08T05:13:12;26.55;;;10.73;;
62463;SDS011;48512;48.552;9.380;2023-03-08T05:15:38;24.70;;;9.82;;
62463;SDS011;48512;48.552;9.380;2023-03-08T05:18:03;27.35;;;10.48;;
62463;SDS011;48512;48.552;9.380;2023-03-08T05:20:29;20.92;;;9.38;;
62463;SDS011;48512;48.552;9.380;2023-03-08T05:22:54;25.08;;;10.48;;
62463;SDS011;48512;48.552;9.380;2023-03-08T05:25:20;22.52;;;9.90;;
62463;SDS011;48512;48.552;9.380;2023-03-08T05:27:45;24.98;;;10.43;;
62463;SDS011;48512;48.552;9.380;2023-03-08T05:30:10;22.75;;;10.77;;
62463;SDS011;48512;48.552;9.380;2023-03-08T05:32:36;21.60;;;10.32;;
62463;SDS011;48512;48.552;9.380;2023-03-08T05:35:01;22.30;;;10.60;;
62463;SDS011;48512;48.552;9.380;2023-03-08T05:37:27;27.77;;;11.40;;
62463;SDS011;48512;48.552;9.380;2023-03-08T05:39:52;27.77;;;11.35;;
62463;SDS011;48512;48.552;9.380;2023-03-08T05:42:18;26.92;;;11.45;;
62463;SDS011;48512;48.552;9.380;2023-03-08T05:44:44;24.15;;;11.13;;
62463;SDS011;48512;48.552;9.380;2023-03-08T05:47:10;29.02;;;11.63;;
62463;SDS011;48512;48.552;9.380;2023-03-08T05:49:35;28.63;;;10.73;;
62463;SDS011;48512;48.552;9.380;2023-03-08T05:52:01;28.05;;;11.82;;
62463;SDS011;48512;48.552;9.380;2023-03-08T05:54:26;29.10;;;12.40;;
62463;SDS011;48512;48.552;9.380;2023-03-08T05:56:52;25.77;;;11.32;;
62463;SDS011;48512;48.552;9.380;2023-03-08T05:59:17;26.08;;;10.85;;
62463;SDS011;48512;48.552;9.380;2023-03-08T06:01:43;29.92;;;12.13;;
62463;SDS011;48512;48.552;9.380;2023-03-08T06:04:08;24.58;;;11.80;;
62463;SDS011;48512;48.552;9.380;2023-03-08T06:06:34;26.20;;;12.57;;
62463;SDS011;48512;48.552;9.380;2023-03-08T06:08:59;26.00;;;12.15;;
62463;SDS011;48512;48.552;9.380;2023-03-08T06:11:24;29.70;;;12.07;;
62463;SDS011;48512;48.552;9.380;2023-03-08T06:13:50;37.80;;;13.50;;
62463;SDS011;48512;48.552;9.380;2023-03-08T06:16:16;35.28;;;14.02;;
62463;SDS011;48512;48.552;9.380;2023-03-08T06:18:42;30.88;;;12.73;;
62463;SDS011;48512;48.552;9.380;2023-03-08T06:23:40;31.02;;;12.75;;
62463;SDS011;48512;48.552;9.380;2023-03-08T06:26:07;30.52;;;13.63;;
62463;SDS011;48512;48.552;9.380;2023-03-08T06:28:33;32.53;;;14.18;;
62463;SDS011;48512;48.552;9.380;2023-03-08T06:30:59;35.10;;;13.35;;
62463;SDS011;48512;48.552;9.380;2023-03-08T06:33:25;31.33;;;12.88;;
62463;SDS011;48512;48.552;9.380;2023-03-08T06:38:33;27.63;;;12.75;;
62463;SDS011;48512;48.552;9.380;2023-03-08T06:41:00;30.52;;;14.48;;
62463;SDS011;48512;48.552;9.380;2023-03-08T06:43:26;30.52;;;13.25;;
62463;SDS011;48512;48.552;9.380;2023-03-08T06:45:52;38.63;;;15.85;;
62463;SDS011;48512;48.552;9.380;2023-03-08T06:48:17;34.90;;;13.48;;
62463;SDS011;48512;48.552;9.380;2023-03-08T06:50:43;33.70;;;13.40;;
62463;SDS011;48512;48.552;9.380;2023-03-08T06:53:09;30.98;;;13.65;;
62463;SDS011;48512;48.552;9.380;2023-03-08T06:55:35;29.38;;;13.70;;
62463;SDS011;48512;48.552;9.380;2023-03-08T06:58:02;34.00;;;13.60;;
62463;SDS011;48512;48.552;9.380;2023-03-08T07:00:28;39.92;;;14.73;;
62463;SDS011;48512;48.552;9.380;2023-03-08T07:02:53;32.50;;;13.38;;
62463;SDS011;48512;48.552;9.380;2023-03-08T07:05:19;33.03;;;12.43;;
62463;SDS011;48512;48.552;9.380;2023-03-08T07:07:45;32.75;;;13.75;;
62463;SDS011;48512;48.552;9.380;2023-03-08T07:10:11;31.00;;;12.82;;
62463;SDS011;48512;48.552;9.380;2023-03-08T07:12:42;35.55;;;13.70;;
62463;SDS011;48512;48.552;9.380;2023-03-08T07:15:11;35.08;;;14.23;;
62463;SDS011;48512;48.552;9.380;2023-03-08T07:17:39;29.50;;;12.82;;
62463;SDS011;48512;48.552;9.380;2023-03-08T07:20:05;36.08;;;14.60;;
62463;SDS011;48512;48.552;9.380;2023-03-08T07:22:32;32.38;;;14.13;;
62463;SDS011;48512;48.552;9.380;2023-03-08T07:24:57;32.47;;;13.85;;
62463;SDS011;48512;48.552;9.380;2023-03-08T07:27:23;35.40;;;14.57;;
62463;SDS011;48512;48.552;9.380;2023-03-08T07:29:48;32.15;;;14.40;;
62463;SDS011;48512;48.552;9.380;2023-03-08T07:32:14;35.17;;;13.85;;
62463;SDS011;48512;48.552;9.380;2023-03-08T07:34:39;35.22;;;13.40;;
62463;SDS011;48512;48.552;9.380;2023-03-08T07:37:09;36.00;;;13.43;;
62463;SDS011;48512;48.552;9.380;2023-03-08T07:39:40;28.55;;;12.35;;
62463;SDS011;48512;48.552;9.380;2023-03-08T07:42:06;27.67;;;12.25;;
62463;SDS011;48512;48.552;9.380;2023-03-08T07:44:32;27.73;;;11.63;;
62463;SDS011;48512;48.552;9.380;2023-03-08T07:46:57;27.33;;;11.60;;
62463;SDS011;48512;48.552;9.380;2023-03-08T07:49:23;30.20;;;12.10;;
62463;SDS011;48512;48.552;9.380;2023-03-08T07:51:48;28.52;;;12.02;;
62463;SDS011;48512;48.552;9.380;2023-03-08T07:54:15;27.05;;;11.20;;
62463;SDS011;48512;48.552;9.380;2023-03-08T07:56:41;30.25;;;11.57;;
62463;SDS011;48512;48.552;9.380;2023-03-08T07:59:06;25.83;;;10.82;;
62463;SDS011;48512;48.552;9.380;2023-03-08T08:01:31;26.65;;;11.88;;
62463;SDS011;48512;48.552;9.380;2023-03-08T08:03:57;26.13;;;11.18;;
62463;SDS011;48512;48.552;9.380;2023-03-08T08:06:24;29.52;;;10.88;;
62463;SDS011;48512;48.552;9.380;2023-03-08T08:08:49;25.75;;;11.07;;
62463;SDS011;48512;48.552;9.380;2023-03-08T08:11:15;23.80;;;9.98;;
62463;SDS011;48512;48.552;9.380;2023-03-08T08:13:41;22.48;;;9.52;;
62463;SDS011;48512;48.552;9.380;2023-03-08T08:16:07;24.40;;;11.25;;
62463;SDS011;48512;48.552;9.380;2023-03-08T08:18:34;22.40;;;9.75;;
62463;SDS011;48512;48.552;9.380;2023-03-08T08:21:03;25.33;;;10.35;;
62463;SDS011;48512;48.552;9.380;2023-03-08T08:23:31;24.85;;;10.40;;
62463;SDS011;48512;48.552;9.380;2023-03-08T08:25:57;27.30;;;10.68;;
62463;SDS011;48512;48.552;9.380;2023-03-08T08:28:24;22.30;;;10.02;;
62463;SDS011;48512;48.552;9.380;2023-03-08T08:30:57;25.77;;;10.30;;
62463;SDS011;48512;48.552;9.380;2023-03-08T08:33:24;26.00;;;11.02;;
62463;SDS011;48512;48.552;9.380;2023-03-08T08:35:49;22.10;;;9.93;;
62463;SDS011;48512;48.552;9.380;2023-03-08T08:38:15;20.65;;;9.20;;
62463;SDS011;48512;48.552;9.380;2023-03-08T08:40:40;21.63;;;9.88;;
62463;SDS011;48512;48.552;9.380;2023-03-08T08:43:06;23.88;;;10.65;;
62463;SDS011;48512;48.552;9.380;2023-03-08T08:45:31;22.88;;;10.25;;
62463;SDS011;48512;48.552;9.380;2023-03-08T08:47:56;21.50;;;9.98;;
62463;SDS011;48512;48.552;9.380;2023-03-08T08:50:22;22.67;;;10.40;;
62463;SDS011;48512;48.552;9.380;2023-03-08T08:52:47;22.58;;;10.48;;
62463;SDS011;48512;48.552;9.380;2023-03-08T08:55:12;22.15;;;9.70;;
62463;SDS011;48512;48.552;9.380;2023-03-08T08:57:38;20.88;;;9.63;;
62463;SDS011;48512;48.552;9.380;2023-03-08T09:00:03;23.65;;;11.05;;
62463;SDS011;48512;48.552;9.380;2023-03-08T09:02:32;22.42;;;9.98;;
62463;SDS011;48512;48.552;9.380;2023-03-08T09:04:57;21.10;;;9.63;;
62463;SDS011;48512;48.552;9.380;2023-03-08T09:07:23;22.05;;;9.57;;
62463;SDS011;48512;48.552;9.380;2023-03-08T09:09:48;19.52;;;9.38;;
62463;SDS011;48512;48.552;9.380;2023-03-08T09:12:13;20.20;;;9.38;;
62463;SDS011;48512;48.552;9.380;2023-03-08T09:14:39;21.15;;;9.18;;
62463;SDS011;48512;48.552;9.380;2023-03-08T09:17:05;19.25;;;8.68;;
62463;SDS011;48512;48.552;9.380;2023-03-08T09:19:30;21.83;;;9.43;;
62463;SDS011;48512;48.552;9.380;2023-03-08T09:21:56;21.55;;;9.60;;
62463;SDS011;48512;48.552;9.380;2023-03-08T09:24:22;18.95;;;8.30;;
62463;SDS011;48512;48.552;9.380;2023-03-08T09:26:47;19.42;;;8.35;;
62463;SDS011;48512;48.552;9.380;2023-03-08T09:29:13;19.05;;;9.00;;
62463;SDS011;48512;48.552;9.380;2023-03-08T09:31:38;19.02;;;8.98;;
62463;SDS011;48512;48.552;9.380;2023-03-08T09:34:04;19.05;;;8.70;;
62463;SDS011;48512;48.552;9.380;2023-03-08T09:36:32;15.73;;;8.40;;
62463;SDS011;48512;48.552;9.380;2023-03-08T09:38:58;18.50;;;8.77;;
62463;SDS011;48512;48.552;9.380;2023-03-08T09:49:43;15.70;;;7.63;;
62463;SDS011;48512;48.552;9.380;2023-03-08T09:52:23;12.60;;;6.15;;
62463;SDS011;48512;48.552;9.380;2023-03-08T09:55:04;14.65;;;6.88;;
62463;SDS011;48512;48.552;9.380;2023-03-08T09:57:49;14.30;;;7.00;;
62463;SDS011;48512;48.552;9.380;2023-03-08T10:00:21;16.08;;;6.82;;
62463;SDS011;48512;48.552;9.380;2023-03-08T10:10:59;12.85;;;5.70;;
62463;SDS011;48512;48.552;9.380;2023-03-08T10:13:33;10.07;;;5.43;;
62463;SDS011;48512;48.552;9.380;2023-03-08T10:16:16;10.35;;;4.88;;
62463;SDS011;48512;48.552;9.380;2023-03-08T10:18:49;10.32;;;5.00;;
62463;SDS011;48512;48.552;9.380;2023-03-08T10:21:16;8.38;;;4.50;;
62463;SDS011;48512;48.552;9.380;2023-03-08T10:23:44;9.05;;;4.35;;
62463;SDS011;48512;48.552;9.380;2023-03-08T10:26:12;7.72;;;4.18;;
62463;SDS011;48512;48.552;9.380;2023-03-08T10:28:39;6.35;;;4.00;;
62463;SDS011;48512;48.552;9.380;2023-03-08T10:33:45;7.32;;;4.10;;
62463;SDS011;48512;48.552;9.380;2023-03-08T10:36:16;3.95;;;2.85;;
62463;SDS011;48512;48.552;9.380;2023-03-08T10:38:43;2.92;;;1.67;;
62463;SDS011;48512;48.552;9.380;2023-03-08T10:41:41;3.47;;;2.00;;
62463;SDS011;48512;48.552;9.380;2023-03-08T10:46:58;3.28;;;1.52;;
62463;SDS011;48512;48.552;9.380;2023-03-08T10:49:23;3.58;;;1.73;;
62463;SDS011;48512;48.552;9.380;2023-03-08T10:54:22;4.90;;;1.70;;
62463;SDS011;48512;48.552;9.380;2023-03-08T10:56:53;2.85;;;2.00;;
62463;SDS011;48512;48.552;9.380;2023-03-08T10:59:30;1.80;;;1.50;;
62463;SDS011;48512;48.552;9.380;2023-03-08T11:01:59;2.22;;;1.70;;
62463;SDS011;48512;48.552;9.380;2023-03-08T11:04:27;2.15;;;1.40;;
62463;SDS011;48512;48.552;9.380;2023-03-08T11:06:54;1.75;;;1.30;;
62463;SDS011;48512;48.552;9.380;2023-03-08T11:11:56;1.42;;;1.10;;
62463;SDS011;48512;48.552;9.380;2023-03-08T11:14:23;2.00;;;1.42;;
62463;SDS011;48512;48.552;9.380;2023-03-08T11:35:34;3.00;;;1.63;;
62463;SDS011;48512;48.552;9.380;2023-03-08T12:01:23;5.90;;;1.80;;
62463;SDS011;48512;48.552;9.380;2023-03-08T12:03:53;1.85;;;1.35;;
62463;SDS011;48512;48.552;9.380;2023-03-08T12:06:24;2.50;;;1.50;;
62463;SDS011;48512;48.552;9.380;2023-03-08T12:09:05;3.80;;;1.65;;
62463;SDS011;48512;48.552;9.380;2023-03-08T12:11:32;5.38;;;1.60;;
62463;SDS011;48512;48.552;9.380;2023-03-08T12:14:09;3.90;;;1.20;;
62463;SDS011;48512;48.552;9.380;2023-03-08T12:22:18;2.05;;;1.30;;
62463;SDS011;48512;48.552;9.380;2023-03-08T12:30:04;1.38;;;1.02;;
62463;SDS011;48512;48.552;9.380;2023-03-08T12:32:35;1.70;;;1.30;;
62463;SDS011;48512;48.552;9.380;2023-03-08T12:35:49;3.03;;;1.27;;
62463;SDS011;48512;48.552;9.380;2023-03-08T12:43:09;3.05;;;1.00;;
62463;SDS011;48512;48.552;9.380;2023-03-08T12:45:37;1.35;;;1.17;;
62463;SDS011;48512;48.552;9.380;2023-03-08T12:50:29;1.08;;;0.98;;
62463;SDS011;48512;48.552;9.380;2023-03-08T12:52:57;1.27;;;1.08;;
62463;SDS011;48512;48.552;9.380;2023-03-08T12:55:24;1.02;;;0.90;;
62463;SDS011;48512;48.552;9.380;2023-03-08T12:58:00;0.60;;;0.60;;
62463;SDS011;48512;48.552;9.380;2023-03-08T13:00:32;1.77;;;0.90;;
62463;SDS011;48512;48.552;9.380;2023-03-08T13:03:02;1.55;;;1.40;;
62463;SDS011;48512;48.552;9.380;2023-03-08T13:05:34;3.83;;;2.10;;
62463;SDS011;48512;48.552;9.380;2023-03-08T13:08:02;0.80;;;0.80;;
62463;SDS011;48512;48.552;9.380;2023-03-08T13:16:57;2.42;;;1.00;;
62463;SDS011;48512;48.552;9.380;2023-03-08T13:18:59;3.03;;;1.10;;
62463;SDS011;48512;48.552;9.380;2023-03-08T13:21:38;3.78;;;1.80;;
62463;SDS011;48512;48.552;9.380;2023-03-08T13:29:32;1.27;;;1.17;;
62463;SDS011;48512;48.552;9.380;2023-03-08T13:32:12;1.10;;;1.00;;
62463;SDS011;48512;48.552;9.380;2023-03-08T13:34:40;1.42;;;1.23;;
62463;SDS011;48512;48.552;9.380;2023-03-08T13:37:27;3.83;;;1.30;;
62463;SDS011;48512;48.552;9.380;2023-03-08T13:39:56;1.42;;;1.13;;
62463;SDS011;48512;48.552;9.380;2023-03-08T13:42:24;3.35;;;1.30;;
62463;SDS011;48512;48.552;9.380;2023-03-08T13:44:52;2.65;;;1.20;;
62463;SDS011;48512;48.552;9.380;2023-03-08T13:47:30;1.00;;;1.00;;
62463;SDS011;48512;48.552;9.380;2023-03-08T13:49:58;2.30;;;1.17;;
62463;SDS011;48512;48.552;9.380;2023-03-08T13:52:29;1.05;;;0.88;;
62463;SDS011;48512;48.552;9.380;2023-03-08T13:54:57;5.22;;;1.88;;
62463;SDS011;48512;48.552;9.380;2023-03-08T13:57:29;1.83;;;1.10;;
62463;SDS011;48512;48.552;9.380;2023-03-08T14:00:01;2.53;;;1.40;;
62463;SDS011;48512;48.552;9.380;2023-03-08T14:02:46;5.60;;;1.80;;
62463;SDS011;48512;48.552;9.380;2023-03-08T14:05:16;1.30;;;0.98;;
62463;SDS011;48512;48.552;9.380;2023-03-08T14:12:58;6.28;;;1.35;;
62463;SDS011;48512;48.552;9.380;2023-03-08T14:15:24;3.13;;;1.40;;
62463;SDS011;48512;48.552;9.380;2023-03-08T14:17:49;2.05;;;1.35;;
62463;SDS011;48512;48.552;9.380;2023-03-08T14:20:19;3.22;;;1.20;;
62463;SDS011;48512;48.552;9.380;2023-03-08T14:22:47;1.17;;;0.90;;
62463;SDS011;48512;48.552;9.380;2023-03-08T14:27:46;3.17;;;1.17;;
62463;SDS011;48512;48.552;9.380;2023-03-08T14:32:40;1.85;;;1.20;;
62463;SDS011;48512;48.552;9.380;2023-03-08T14:35:30;1.55;;;1.17;;
62463;SDS011;48512;48.552;9.380;2023-03-08T14:37:59;3.30;;;1.42;;
62463;SDS011;48512;48.552;9.380;2023-03-08T14:40:27;3.08;;;1.30;;
62463;SDS011;48512;48.552;9.380;2023-03-08T14:42:56;3.30;;;1.30;;
62463;SDS011;48512;48.552;9.380;2023-03-08T14:45:40;7.55;;;1.48;;
62463;SDS011;48512;48.552;9.380;2023-03-08T14:53:36;2.83;;;1.50;;
62463;SDS011;48512;48.552;9.380;2023-03-08T14:56:05;1.60;;;1.00;;
62463;SDS011;48512;48.552;9.380;2023-03-08T14:58:37;2.47;;;1.17;;
62463;SDS011;48512;48.552;9.380;2023-03-08T15:01:04;2.25;;;1.50;;
62463;SDS011;48512;48.552;9.380;2023-03-08T15:03:30;4.63;;;1.30;;
62463;SDS011;48512;48.552;9.380;2023-03-08T15:05:57;4.82;;;1.15;;
62463;SDS011;48512;48.552;9.380;2023-03-08T15:08:24;3.92;;;1.40;;
62463;SDS011;48512;48.552;9.380;2023-03-08T15:10:50;1.73;;;1.20;;
62463;SDS011;48512;48.552;9.380;2023-03-08T15:13:20;2.60;;;1.35;;
62463;SDS011;48512;48.552;9.380;2023-03-08T15:15:47;4.65;;;1.50;;
62463;SDS011;48512;48.552;9.380;2023-03-08T15:18:13;2.08;;;1.23;;
62463;SDS011;48512;48.552;9.380;2023-03-08T15:20:42;6.00;;;1.92;;
62463;SDS011;48512;48.552;9.380;2023-03-08T15:23:12;2.55;;;1.30;;
62463;SDS011;48512;48.552;9.380;2023-03-08T15:25:44;2.25;;;1.77;;
62463;SDS011;48512;48.552;9.380;2023-03-08T15:28:12;2.88;;;1.90;;
62463;SDS011;48512;48.552;9.380;2023-03-08T15:30:38;1.65;;;0.85;;
62463;SDS011;48512;48.552;9.380;2023-03-08T15:33:03;3.42;;;1.25;;
62463;SDS011;48512;48.552;9.380;2023-03-08T15:35:29;2.85;;;1.40;;
62463;SDS011;48512;48.552;9.380;2023-03-08T15:37:55;7.25;;;2.08;;
62463;SDS011;48512;48.552;9.380;2023-03-08T15:40:22;3.40;;;1.42;;
62463;SDS011;48512;48.552;9.380;2023-03-08T15:42:49;3.67;;;1.30;;
62463;SDS011;48512;48.552;9.380;2023-03-08T15:45:15;3.35;;;1.30;;
62463;SDS011;48512;48.552;9.380;2023-03-08T15:47:40;3.95;;;1.75;;
62463;SDS011;48512;48.552;9.380;2023-03-08T15:50:14;6.45;;;1.90;;
62463;SDS011;48512;48.552;9.380;2023-03-08T15:52:41;7.45;;;2.75;;
62463;SDS011;48512;48.552;9.380;2023-03-08T15:55:09;21.75;;;5.45;;
62463;SDS011;48512;48.552;9.380;2023-03-08T15:57:38;5.28;;;1.50;;
62463;SDS011;48512;48.552;9.380;2023-03-08T16:00:05;4.03;;;1.63;;
62463;SDS011;48512;48.552;9.380;2023-03-08T16:02:35;10.57;;;2.10;;
62463;SDS011;48512;48.552;9.380;2023-03-08T16:05:02;10.55;;;1.92;;
62463;SDS011;48512;48.552;9.380;2023-03-08T16:07:32;3.78;;;1.40;;
62463;SDS011;48512;48.552;9.380;2023-03-08T16:09:57;1.17;;;1.05;;
62463;SDS011;48512;48.552;9.380;2023-03-08T16:12:23;4.03;;;1.67;;
62463;SDS011;48512;48.552;9.380;2023-03-08T16:14:49;4.28;;;1.73;;
62463;SDS011;48512;48.552;9.380;2023-03-08T16:17:16;8.45;;;2.72;;
62463;SDS011;48512;48.552;9.380;2023-03-08T16:19:41;4.75;;;1.70;;
62463;SDS011;48512;48.552;9.380;2023-03-08T16:22:08;2.33;;;1.00;;
62463;SDS011;48512;48.552;9.380;2023-03-08T16:24:34;5.07;;;1.45;;
62463;SDS011;48512;48.552;9.380;2023-03-08T16:26:59;2.60;;;1.70;;
62463;SDS011;48512;48.552;9.380;2023-03-08T16:29:25;6.00;;;2.53;;
62463;SDS011;48512;48.552;9.380;2023-03-08T16:31:51;2.30;;;1.55;;
62463;SDS011;48512;48.552;9.380;2023-03-08T16:34:17;3.05;;;1.75;;
62463;SDS011;48512;48.552;9.380;2023-03-08T16:36:42;1.98;;;1.83;;
62463;SDS011;48512;48.552;9.380;2023-03-08T16:39:08;3.10;;;2.00;;
62463;SDS011;48512;48.552;9.380;2023-03-08T16:41:37;3.67;;;1.92;;
62463;SDS011;48512;48.552;9.380;2023-03-08T16:44:04;3.70;;;2.00;;